Time;durP1;ratioP1;P1;durP2;ratioP2;P2;SDS_P1;SDS_P2;PMS_P1;PMS_P2;Temp;Humidity;BMP_temperature;BMP_pressure;BME280_temperature;BME280_humidity;BME280_pressure;Samples;Min_cycle;Max_cycle;Signal;HPM_P1;HPM_P2
2023/08/16 00:01:39;;;;;;;7.45;2.28;;;;;;;;;;4994102;28;20042;-84
2023/08/16 00:04:05;;;;;;;3.58;2.35;;;;;;;;;;5002431;28;20026;-85
2023/08/16 00:06:30;;;;;;;6.22;2.22;;;;;;;;;;4993769;28;20037;-84
2023/08/16 00:08:58;;;;;;;3.35;2.00;;;;;;;;;;5000379;28;20043;-85
2023/08/16 00:11:25;;;;;;;3.83;2.35;;;;;;;;;;4980405;28;20041;-85
2023/08/16 00:13:50;;;;;;;3.45;2.20;;;;;;;;;;4999968;28;20397;-85
2023/08/16 00:16:16;;;;;;;2.95;2.30;;;;;;;;;;4991718;28;20044;-85
2023/08/16 00:18:41;;;;;;;4.30;2.08;;;;;;;;;;4989003;28;20056;-85
2023/08/16 00:21:07;;;;;;;3.53;2.45;;;;;;;;;;4993905;28;20077;-86
2023/08/16 00:23:32;;;;;;;3.65;2.13;;;;;;;;;;4999983;28;20493;-85
2023/08/16 00:25:58;;;;;;;5.00;2.30;;;;;;;;;;4974406;28;20100;-85
2023/08/16 00:28:23;;;;;;;3.80;2.30;;;;;;;;;;4986361;28;20041;-85
2023/08/16 00:30:55;;;;;;;2.25;2.05;;;;;;;;;;4966091;28;20502;-85
2023/08/16 00:33:21;;;;;;;3.33;2.25;;;;;;;;;;4972019;28;20030;-86
2023/08/16 00:35:47;;;;;;;3.00;2.20;;;;;;;;;;4983684;28;20022;-85
2023/08/16 00:38:13;;;;;;;2.60;2.20;;;;;;;;;;4988750;28;20039;-86
2023/08/16 00:40:38;;;;;;;2.90;2.00;;;;;;;;;;4963717;28;20026;-85
2023/08/16 00:43:04;;;;;;;3.67;2.20;;;;;;;;;;4999312;28;20033;-85
2023/08/16 00:45:30;;;;;;;3.30;2.00;;;;;;;;;;5004194;28;20027;-85
2023/08/16 00:47:56;;;;;;;5.78;2.20;;;;;;;;;;4984322;28;20033;-86
2023/08/16 00:50:23;;;;;;;4.30;2.60;;;;;;;;;;4978059;28;20053;-85
2023/08/16 00:52:51;;;;;;;5.80;2.58;;;;;;;;;;4973307;28;20030;-85
2023/08/16 00:55:17;;;;;;;3.95;2.10;;;;;;;;;;4983418;28;20030;-85
2023/08/16 00:57:43;;;;;;;4.28;2.35;;;;;;;;;;4995869;28;20588;-85
2023/08/16 01:00:10;;;;;;;5.18;2.20;;;;;;;;;;4969781;28;20042;-85
2023/08/16 01:02:36;;;;;;;5.80;2.53;;;;;;;;;;4993346;28;20466;-85
2023/08/16 01:05:02;;;;;;;4.57;2.42;;;;;;;;;;4989916;28;20026;-85
2023/08/16 01:07:28;;;;;;;4.05;2.40;;;;;;;;;;4984079;28;20026;-85
2023/08/16 01:09:53;;;;;;;2.80;2.40;;;;;;;;;;4991003;28;20038;-85
2023/08/16 01:12:31;;;;;;;4.03;2.50;;;;;;;;;;4982083;28;20030;-85
2023/08/16 01:15:17;;;;;;;3.63;2.30;;;;;;;;;;4993737;28;20041;-85
2023/08/16 01:17:44;;;;;;;3.63;2.15;;;;;;;;;;4974017;28;20038;-85
2023/08/16 01:20:10;;;;;;;2.65;2.13;;;;;;;;;;4992785;28;20370;-84
2023/08/16 01:22:47;;;;;;;4.70;2.50;;;;;;;;;;4982377;28;20041;-84
2023/08/16 01:25:46;;;;;;;3.92;2.67;;;;;;;;;;4972852;28;20043;-84
2023/08/16 01:28:13;;;;;;;4.25;2.70;;;;;;;;;;4977495;28;20042;-85
2023/08/16 01:30:45;;;;;;;3.67;2.63;;;;;;;;;;4972703;28;20065;-85
2023/08/16 01:33:13;;;;;;;2.83;2.28;;;;;;;;;;5002692;28;20037;-84
2023/08/16 01:35:40;;;;;;;4.47;2.63;;;;;;;;;;4990014;28;20117;-85
2023/08/16 01:38:07;;;;;;;3.83;2.58;;;;;;;;;;4985156;28;20040;-85
2023/08/16 01:40:58;;;;;;;4.45;2.60;;;;;;;;;;4960244;28;20018;-84
2023/08/16 01:43:24;;;;;;;4.25;2.55;;;;;;;;;;4955289;28;20034;-85
2023/08/16 01:45:52;;;;;;;3.38;2.40;;;;;;;;;;4990706;28;20033;-85
2023/08/16 01:48:21;;;;;;;4.65;2.40;;;;;;;;;;4987698;28;20037;-85
2023/08/16 01:50:47;;;;;;;3.60;2.60;;;;;;;;;;4959132;28;20129;-85
2023/08/16 01:53:12;;;;;;;4.97;2.55;;;;;;;;;;5001666;28;20117;-84
2023/08/16 01:55:38;;;;;;;4.40;2.55;;;;;;;;;;4981310;28;20034;-85
2023/08/16 01:58:03;;;;;;;5.57;2.72;;;;;;;;;;4979713;28;20085;-86
2023/08/16 02:00:29;;;;;;;5.18;2.42;;;;;;;;;;4982109;28;20030;-85
2023/08/16 02:02:54;;;;;;;5.13;2.33;;;;;;;;;;4979560;28;20490;-85
2023/08/16 02:05:19;;;;;;;4.65;2.53;;;;;;;;;;4997865;28;20473;-85
2023/08/16 02:07:45;;;;;;;2.85;2.55;;;;;;;;;;4980805;28;20022;-85
2023/08/16 02:10:11;;;;;;;4.93;2.20;;;;;;;;;;4987209;28;20089;-85
2023/08/16 02:12:36;;;;;;;3.17;2.40;;;;;;;;;;4996496;28;20088;-85
2023/08/16 02:15:02;;;;;;;3.00;2.38;;;;;;;;;;4967618;28;20039;-86
2023/08/16 02:17:28;;;;;;;2.60;2.33;;;;;;;;;;4979496;28;20487;-88
2023/08/16 02:19:54;;;;;;;3.13;2.45;;;;;;;;;;4969298;28;20455;-86
2023/08/16 02:22:20;;;;;;;3.22;2.20;;;;;;;;;;4981506;28;20132;-85
2023/08/16 02:24:45;;;;;;;3.60;2.45;;;;;;;;;;4990539;28;20114;-86
2023/08/16 02:27:11;;;;;;;3.25;2.28;;;;;;;;;;4968476;28;20102;-87
2023/08/16 02:29:36;;;;;;;5.25;2.50;;;;;;;;;;4992390;28;20366;-85
2023/08/16 02:32:02;;;;;;;2.80;2.30;;;;;;;;;;4984286;28;20034;-85
2023/08/16 02:34:29;;;;;;;3.00;2.40;;;;;;;;;;4982809;28;20080;-85
2023/08/16 02:36:54;;;;;;;3.45;2.30;;;;;;;;;;4989157;28;20035;-86
2023/08/16 02:39:21;;;;;;;3.72;2.42;;;;;;;;;;4979582;28;20376;-87
2023/08/16 02:41:47;;;;;;;4.82;2.33;;;;;;;;;;5004595;28;20034;-87
2023/08/16 02:44:12;;;;;;;2.88;2.47;;;;;;;;;;4984567;28;20121;-86
2023/08/16 02:46:37;;;;;;;3.17;2.50;;;;;;;;;;4976057;28;20039;-86
2023/08/16 02:49:03;;;;;;;3.85;2.35;;;;;;;;;;4983902;28;20045;-87
2023/08/16 02:51:28;;;;;;;3.17;2.45;;;;;;;;;;4998068;28;20042;-87
2023/08/16 02:53:54;;;;;;;3.35;2.30;;;;;;;;;;5005587;28;20050;-86
2023/08/16 02:56:19;;;;;;;3.75;2.40;;;;;;;;;;4982599;28;20039;-86
2023/08/16 02:58:45;;;;;;;5.25;2.70;;;;;;;;;;4985923;28;20065;-86
2023/08/16 03:01:10;;;;;;;6.53;2.58;;;;;;;;;;4989180;28;20061;-86
2023/08/16 03:03:36;;;;;;;3.13;2.30;;;;;;;;;;4976533;28;20131;-86
2023/08/16 03:06:01;;;;;;;5.03;2.50;;;;;;;;;;4999325;28;20076;-87
2023/08/16 03:08:27;;;;;;;3.22;2.30;;;;;;;;;;4973219;28;20037;-85
2023/08/16 03:10:52;;;;;;;2.70;2.17;;;;;;;;;;4976303;28;20026;-86
2023/08/16 03:13:18;;;;;;;4.72;2.50;;;;;;;;;;4992599;28;20498;-86
2023/08/16 03:15:43;;;;;;;2.60;2.40;;;;;;;;;;4982020;28;20036;-87
2023/08/16 03:18:10;;;;;;;4.03;2.35;;;;;;;;;;4981441;28;20445;-86
2023/08/16 03:20:36;;;;;;;3.67;2.38;;;;;;;;;;4975053;28;20057;-87
2023/08/16 03:23:02;;;;;;;3.20;2.30;;;;;;;;;;4963126;28;20035;-86
2023/08/16 03:25:28;;;;;;;6.13;2.40;;;;;;;;;;4969828;28;20098;-86
2023/08/16 03:27:54;;;;;;;5.45;2.50;;;;;;;;;;4981982;28;20561;-86
2023/08/16 03:30:20;;;;;;;3.97;2.13;;;;;;;;;;4998182;28;20030;-86
2023/08/16 03:32:45;;;;;;;4.93;2.40;;;;;;;;;;4999998;28;20383;-86
2023/08/16 03:35:12;;;;;;;3.75;2.60;;;;;;;;;;4980993;28;20038;-86
2023/08/16 03:37:37;;;;;;;3.15;2.30;;;;;;;;;;4966276;28;20027;-86
2023/08/16 03:40:06;;;;;;;4.88;2.25;;;;;;;;;;4983445;28;20512;-86
2023/08/16 03:42:32;;;;;;;3.80;2.60;;;;;;;;;;4988491;28;20033;-86
2023/08/16 03:44:57;;;;;;;2.50;2.30;;;;;;;;;;4975431;28;20034;-85
2023/08/16 03:47:23;;;;;;;5.40;2.50;;;;;;;;;;4983903;28;20038;-87
2023/08/16 03:49:49;;;;;;;7.90;2.50;;;;;;;;;;4986751;28;20489;-86
2023/08/16 03:52:15;;;;;;;3.00;2.70;;;;;;;;;;5004447;28;20053;-86
2023/08/16 03:54:40;;;;;;;4.95;2.40;;;;;;;;;;4997112;28;20037;-86
2023/08/16 03:57:06;;;;;;;5.93;2.58;;;;;;;;;;4989005;28;20045;-86
2023/08/16 03:59:32;;;;;;;5.43;2.60;;;;;;;;;;4964439;28;20035;-86
2023/08/16 04:01:58;;;;;;;2.90;2.30;;;;;;;;;;4976611;28;20573;-85
2023/08/16 04:04:24;;;;;;;3.83;2.33;;;;;;;;;;4984155;28;20482;-87
2023/08/16 04:06:49;;;;;;;4.13;2.60;;;;;;;;;;4993906;28;20033;-86
2023/08/16 04:09:15;;;;;;;3.35;2.40;;;;;;;;;;4982626;28;20460;-87
2023/08/16 04:11:40;;;;;;;5.68;2.28;;;;;;;;;;4994391;28;20023;-86
2023/08/16 04:14:05;;;;;;;3.45;2.42;;;;;;;;;;4984727;28;20022;-86
2023/08/16 04:16:31;;;;;;;3.58;2.60;;;;;;;;;;4982122;28;20035;-86
2023/08/16 04:18:57;;;;;;;6.00;2.30;;;;;;;;;;4985976;28;20039;-86
2023/08/16 04:21:23;;;;;;;3.15;2.33;;;;;;;;;;4990854;28;20398;-86
2023/08/16 04:23:48;;;;;;;3.95;2.47;;;;;;;;;;4988776;28;20031;-86
2023/08/16 04:26:15;;;;;;;4.05;2.40;;;;;;;;;;4980379;28;20029;-86
2023/08/16 04:28:40;;;;;;;2.58;2.33;;;;;;;;;;4976945;28;20459;-86
2023/08/16 04:31:06;;;;;;;3.78;2.42;;;;;;;;;;4998233;28;20121;-86
2023/08/16 04:33:32;;;;;;;4.70;2.38;;;;;;;;;;4989537;28;20145;-86
2023/08/16 04:35:57;;;;;;;5.10;2.30;;;;;;;;;;4986097;28;20091;-83
2023/08/16 04:38:23;;;;;;;3.70;2.20;;;;;;;;;;4981045;28;20040;-86
2023/08/16 04:40:51;;;;;;;3.10;2.20;;;;;;;;;;4989979;28;20041;-86
2023/08/16 04:43:19;;;;;;;3.72;1.83;;;;;;;;;;4990428;28;20098;-86
2023/08/16 04:45:45;;;;;;;5.22;1.90;;;;;;;;;;4977092;28;20065;-87
2023/08/16 04:48:13;;;;;;;3.85;2.13;;;;;;;;;;4980024;28;20073;-85
2023/08/16 04:50:38;;;;;;;3.72;1.90;;;;;;;;;;4986638;28;20073;-87
2023/08/16 04:53:04;;;;;;;5.38;2.08;;;;;;;;;;4980249;28;20469;-88
2023/08/16 04:55:29;;;;;;;5.68;1.92;;;;;;;;;;4985760;28;20034;-86
2023/08/16 04:57:55;;;;;;;3.30;2.00;;;;;;;;;;4987603;28;20100;-86
2023/08/16 05:00:22;;;;;;;8.60;2.25;;;;;;;;;;4984094;28;20042;-86
2023/08/16 05:02:53;;;;;;;2.70;1.90;;;;;;;;;;4977253;28;20034;-86
2023/08/16 05:05:19;;;;;;;4.30;1.90;;;;;;;;;;4997471;28;20041;-87
2023/08/16 05:07:44;;;;;;;3.63;1.90;;;;;;;;;;4987661;28;20481;-86
2023/08/16 05:10:10;;;;;;;4.57;1.70;;;;;;;;;;4962969;28;20511;-86
2023/08/16 05:12:36;;;;;;;3.17;1.98;;;;;;;;;;4982433;28;20636;-86
2023/08/16 05:15:01;;;;;;;3.38;1.98;;;;;;;;;;4985227;28;20677;-87
2023/08/16 05:17:29;;;;;;;2.40;1.80;;;;;;;;;;4981840;28;20042;-87
2023/08/16 05:19:55;;;;;;;4.60;2.00;;;;;;;;;;4975484;28;20035;-87
2023/08/16 05:22:22;;;;;;;3.75;1.90;;;;;;;;;;4994209;28;20073;-86
2023/08/16 05:24:48;;;;;;;3.25;2.03;;;;;;;;;;5000340;28;20405;-86
2023/08/16 05:27:13;;;;;;;2.20;1.92;;;;;;;;;;4979875;28;20114;-86
2023/08/16 05:29:40;;;;;;;3.65;2.10;;;;;;;;;;4994967;28;20109;-86
2023/08/16 05:32:05;;;;;;;3.17;2.00;;;;;;;;;;4989629;28;20125;-87
2023/08/16 05:34:31;;;;;;;3.45;2.15;;;;;;;;;;4992495;28;20122;-87
2023/08/16 05:36:56;;;;;;;2.67;2.17;;;;;;;;;;4979245;28;20038;-86
2023/08/16 05:39:22;;;;;;;3.90;2.05;;;;;;;;;;4988183;28;20038;-86
2023/08/16 05:41:48;;;;;;;3.05;2.15;;;;;;;;;;4987353;28;20042;-86
2023/08/16 05:44:14;;;;;;;4.20;1.95;;;;;;;;;;4978115;28;20057;-86
2023/08/16 05:46:39;;;;;;;2.85;1.80;;;;;;;;;;4985596;28;20119;-86
2023/08/16 05:49:08;;;;;;;3.38;1.90;;;;;;;;;;4992671;28;20135;-87
2023/08/16 05:51:33;;;;;;;3.28;1.90;;;;;;;;;;4987078;28;20070;-87
2023/08/16 05:53:59;;;;;;;3.25;1.90;;;;;;;;;;4986582;28;20069;-86
2023/08/16 05:56:25;;;;;;;3.20;1.90;;;;;;;;;;4996710;28;20037;-86
2023/08/16 05:58:50;;;;;;;3.55;2.20;;;;;;;;;;4983492;28;20038;-86
2023/08/16 06:01:16;;;;;;;2.80;2.05;;;;;;;;;;4987932;28;20041;-86
2023/08/16 06:03:41;;;;;;;3.22;2.13;;;;;;;;;;4995023;28;20031;-86
2023/08/16 06:06:07;;;;;;;4.70;2.03;;;;;;;;;;4986967;28;20086;-86
2023/08/16 06:08:32;;;;;;;3.80;2.08;;;;;;;;;;4990669;28;20050;-88
2023/08/16 06:10:58;;;;;;;4.70;2.10;;;;;;;;;;4996920;28;20030;-87
2023/08/16 06:13:23;;;;;;;3.40;1.90;;;;;;;;;;4979633;28;20054;-87
2023/08/16 06:15:48;;;;;;;2.45;1.80;;;;;;;;;;4986319;28;20121;-87
2023/08/16 06:18:14;;;;;;;4.07;2.08;;;;;;;;;;4984618;28;20056;-87
2023/08/16 06:20:40;;;;;;;3.15;2.00;;;;;;;;;;5006847;28;20031;-86
2023/08/16 06:23:05;;;;;;;6.55;2.10;;;;;;;;;;4990040;28;20524;-86
2023/08/16 06:25:31;;;;;;;5.00;2.20;;;;;;;;;;4989187;28;20046;-86
2023/08/16 06:27:56;;;;;;;5.63;2.15;;;;;;;;;;4989929;28;20033;-86
2023/08/16 06:30:22;;;;;;;4.10;1.90;;;;;;;;;;4993437;28;20702;-85
2023/08/16 06:32:47;;;;;;;4.45;2.10;;;;;;;;;;4995557;28;20057;-86
2023/08/16 06:35:13;;;;;;;2.72;1.88;;;;;;;;;;4996048;28;20393;-87
2023/08/16 06:37:39;;;;;;;3.67;1.98;;;;;;;;;;4980197;28;20038;-86
2023/08/16 06:40:05;;;;;;;3.50;2.00;;;;;;;;;;4983472;28;20041;-86
2023/08/16 06:42:34;;;;;;;2.90;2.00;;;;;;;;;;4989458;28;20042;-87
2023/08/16 06:45:00;;;;;;;2.75;2.00;;;;;;;;;;5000854;28;20038;-88
2023/08/16 06:47:25;;;;;;;3.05;2.10;;;;;;;;;;5010115;28;20038;-89
2023/08/16 06:49:51;;;;;;;5.25;2.20;;;;;;;;;;4977776;28;20082;-89
2023/08/16 06:52:17;;;;;;;2.65;2.20;;;;;;;;;;4993261;28;20074;-87
2023/08/16 06:54:42;;;;;;;3.85;2.10;;;;;;;;;;5000849;28;20046;-89
2023/08/16 06:57:08;;;;;;;3.75;2.20;;;;;;;;;;5001650;28;20042;-90
2023/08/16 06:59:35;;;;;;;2.33;2.00;;;;;;;;;;4988743;28;20046;-91
2023/08/16 07:02:00;;;;;;;3.45;2.20;;;;;;;;;;4978654;28;20038;-88
2023/08/16 07:04:26;;;;;;;3.35;1.92;;;;;;;;;;4994261;28;20040;-86
2023/08/16 07:06:52;;;;;;;6.10;2.20;;;;;;;;;;4998225;28;20038;-87
2023/08/16 07:09:17;;;;;;;3.95;2.50;;;;;;;;;;4994194;28;20046;-87
2023/08/16 07:11:43;;;;;;;2.70;2.00;;;;;;;;;;4998745;28;20037;-87
2023/08/16 07:14:08;;;;;;;4.80;2.00;;;;;;;;;;4986840;28;20113;-87
2023/08/16 07:16:35;;;;;;;2.47;2.00;;;;;;;;;;4975798;28;20528;-88
2023/08/16 07:19:01;;;;;;;3.97;2.20;;;;;;;;;;5008012;28;20038;-86
2023/08/16 07:21:26;;;;;;;2.72;1.88;;;;;;;;;;4999081;28;20142;-86
2023/08/16 07:23:52;;;;;;;3.60;2.05;;;;;;;;;;4990734;28;20062;-87
2023/08/16 07:26:17;;;;;;;2.45;1.90;;;;;;;;;;4993450;28;20142;-86
2023/08/16 07:28:43;;;;;;;2.88;1.90;;;;;;;;;;5000683;28;20045;-86
2023/08/16 07:31:08;;;;;;;4.25;2.03;;;;;;;;;;5000706;28;20098;-88
2023/08/16 07:33:35;;;;;;;4.20;1.90;;;;;;;;;;4991452;28;20042;-85
2023/08/16 07:36:01;;;;;;;3.70;1.90;;;;;;;;;;5000827;28;20125;-86
2023/08/16 07:38:28;;;;;;;2.33;1.85;;;;;;;;;;4992227;28;20039;-87
2023/08/16 07:40:54;;;;;;;2.25;1.90;;;;;;;;;;4998636;28;20059;-87
2023/08/16 07:43:19;;;;;;;4.25;2.50;;;;;;;;;;4991136;28;20899;-86
2023/08/16 07:45:45;;;;;;;5.47;2.10;;;;;;;;;;5002410;28;20098;-87
2023/08/16 07:48:10;;;;;;;6.70;2.13;;;;;;;;;;4993628;28;20035;-87
2023/08/16 07:50:36;;;;;;;5.07;2.10;;;;;;;;;;4989565;28;20105;-87
2023/08/16 07:53:02;;;;;;;4.97;2.15;;;;;;;;;;4997429;28;20060;-87
2023/08/16 07:55:32;;;;;;;3.15;2.08;;;;;;;;;;4993008;28;20022;-86
2023/08/16 07:57:58;;;;;;;3.55;2.00;;;;;;;;;;5000311;28;20117;-87
2023/08/16 08:00:23;;;;;;;3.55;2.10;;;;;;;;;;4991031;28;20073;-87
2023/08/16 08:02:48;;;;;;;3.13;1.88;;;;;;;;;;4999352;28;20045;-86
2023/08/16 08:05:15;;;;;;;4.13;2.17;;;;;;;;;;5002650;28;20104;-86
2023/08/16 08:07:40;;;;;;;3.53;1.95;;;;;;;;;;4977247;28;20031;-87
2023/08/16 08:10:07;;;;;;;2.90;1.98;;;;;;;;;;4996448;28;20161;-88
2023/08/16 08:12:32;;;;;;;3.78;2.03;;;;;;;;;;4986006;28;20030;-88
2023/08/16 08:14:58;;;;;;;3.60;2.00;;;;;;;;;;5006900;28;20037;-87
2023/08/16 08:17:24;;;;;;;4.43;1.88;;;;;;;;;;5006602;28;20565;-87
2023/08/16 08:19:49;;;;;;;4.85;2.22;;;;;;;;;;5000595;28;20037;-88
2023/08/16 08:22:15;;;;;;;3.38;1.88;;;;;;;;;;4999070;28;20121;-87
2023/08/16 08:24:40;;;;;;;3.03;2.10;;;;;;;;;;4999230;28;20094;-85
2023/08/16 08:27:06;;;;;;;4.03;1.85;;;;;;;;;;4989044;28;20043;-88
2023/08/16 08:29:31;;;;;;;5.15;2.00;;;;;;;;;;4995188;28;20035;-87
2023/08/16 08:31:57;;;;;;;6.70;2.22;;;;;;;;;;4995500;28;20049;-86
2023/08/16 08:34:24;;;;;;;2.80;2.22;;;;;;;;;;5002232;28;20045;-86
2023/08/16 08:36:49;;;;;;;3.97;1.80;;;;;;;;;;4981220;28;20037;-87
2023/08/16 08:39:18;;;;;;;5.45;3.10;;;;;;;;;;5009549;28;20057;-87
2023/08/16 08:41:47;;;;;;;2.58;1.75;;;;;;;;;;4995330;28;20030;-86
2023/08/16 08:44:17;;;;;;;3.08;1.70;;;;;;;;;;5007982;28;20030;-86
2023/08/16 08:46:45;;;;;;;3.28;1.77;;;;;;;;;;4997492;28;20072;-86
2023/08/16 08:49:13;;;;;;;4.20;1.88;;;;;;;;;;4993251;28;20098;-86
2023/08/16 08:51:40;;;;;;;3.20;2.30;;;;;;;;;;4986368;28;20045;-86
2023/08/16 08:54:06;;;;;;;3.22;1.80;;;;;;;;;;5009549;28;20053;-87
2023/08/16 08:56:32;;;;;;;3.75;1.83;;;;;;;;;;5002641;28;20041;-86
2023/08/16 08:59:01;;;;;;;3.50;1.90;;;;;;;;;;4991164;28;20070;-86
2023/08/16 09:01:27;;;;;;;3.70;2.00;;;;;;;;;;4986855;28;20386;-86
2023/08/16 09:03:55;;;;;;;2.88;1.80;;;;;;;;;;5002336;28;20087;-86
2023/08/16 09:06:21;;;;;;;4.63;2.10;;;;;;;;;;4979102;28;20085;-86
2023/08/16 09:08:48;;;;;;;3.42;2.05;;;;;;;;;;4970285;28;20062;-86
2023/08/16 09:11:14;;;;;;;4.20;2.20;;;;;;;;;;4977972;28;20042;-86
2023/08/16 09:13:40;;;;;;;2.60;1.88;;;;;;;;;;5000969;28;20030;-87
2023/08/16 09:16:06;;;;;;;3.72;2.47;;;;;;;;;;5000247;28;20042;-87
2023/08/16 09:18:31;;;;;;;3.55;2.20;;;;;;;;;;4990236;28;20045;-86
2023/08/16 09:21:00;;;;;;;3.20;2.15;;;;;;;;;;4980554;28;20076;-84
2023/08/16 09:23:26;;;;;;;3.72;1.95;;;;;;;;;;4987029;28;20042;-85
2023/08/16 09:25:51;;;;;;;3.10;1.85;;;;;;;;;;5000823;28;20040;-86
2023/08/16 09:28:17;;;;;;;1.90;1.70;;;;;;;;;;4976189;28;20347;-86
2023/08/16 09:30:42;;;;;;;2.38;1.70;;;;;;;;;;4985491;28;20607;-86
2023/08/16 09:33:12;;;;;;;2.83;1.90;;;;;;;;;;4991603;28;20034;-86
2023/08/16 09:35:50;;;;;;;3.20;1.75;;;;;;;;;;4990682;28;20116;-86
2023/08/16 09:38:16;;;;;;;3.55;1.85;;;;;;;;;;4977923;28;20121;-86
2023/08/16 09:40:48;;;;;;;2.83;1.95;;;;;;;;;;4988329;28;20118;-86
2023/08/16 09:43:14;;;;;;;2.38;1.90;;;;;;;;;;4993834;28;20171;-86
2023/08/16 09:45:40;;;;;;;5.20;2.15;;;;;;;;;;4990359;28;20121;-86
2023/08/16 09:48:08;;;;;;;4.63;2.00;;;;;;;;;;4971232;28;20029;-86
2023/08/16 09:50:35;;;;;;;4.03;2.20;;;;;;;;;;4993232;28;20048;-88
2023/08/16 09:53:04;;;;;;;2.35;1.80;;;;;;;;;;5002087;28;20050;-88
2023/08/16 09:55:35;;;;;;;2.72;2.00;;;;;;;;;;4980252;28;20039;-86
2023/08/16 09:58:01;;;;;;;3.20;1.80;;;;;;;;;;4986616;28;20034;-87
2023/08/16 10:00:28;;;;;;;2.58;2.00;;;;;;;;;;4991667;28;20066;-87
2023/08/16 10:02:55;;;;;;;3.00;1.67;;;;;;;;;;5002877;28;20120;-87
2023/08/16 10:05:21;;;;;;;2.05;1.70;;;;;;;;;;4998993;28;20205;-87
2023/08/16 10:07:47;;;;;;;4.13;1.80;;;;;;;;;;4988260;28;20041;-87
2023/08/16 10:10:14;;;;;;;4.57;2.00;;;;;;;;;;4986747;28;20065;-87
2023/08/16 10:12:39;;;;;;;2.65;1.90;;;;;;;;;;5001600;28;20377;-87
2023/08/16 10:15:05;;;;;;;2.90;1.52;;;;;;;;;;5000759;28;20489;-87
2023/08/16 10:17:32;;;;;;;3.83;1.83;;;;;;;;;;4992130;28;20104;-87
2023/08/16 10:20:04;;;;;;;2.67;1.77;;;;;;;;;;4971429;28;20539;-87
2023/08/16 10:22:37;;;;;;;3.60;1.80;;;;;;;;;;4990701;28;20057;-87
2023/08/16 10:25:12;;;;;;;2.25;1.70;;;;;;;;;;4975182;28;20398;-86
2023/08/16 10:27:42;;;;;;;2.75;1.60;;;;;;;;;;4973280;28;20027;-86
2023/08/16 10:30:11;;;;;;;3.90;1.85;;;;;;;;;;4975718;28;20034;-87
2023/08/16 10:32:41;;;;;;;2.30;1.70;;;;;;;;;;4988695;28;20370;-87
2023/08/16 10:35:08;;;;;;;3.15;1.77;;;;;;;;;;4978283;28;20038;-87
2023/08/16 10:37:34;;;;;;;3.45;1.83;;;;;;;;;;4980615;28;20038;-87
2023/08/16 10:39:59;;;;;;;2.78;1.70;;;;;;;;;;4984544;28;20033;-86
2023/08/16 10:42:26;;;;;;;2.78;1.90;;;;;;;;;;4993654;28;20034;-86
2023/08/16 10:44:52;;;;;;;4.63;1.90;;;;;;;;;;4989780;28;20438;-86
2023/08/16 10:47:30;;;;;;;4.40;1.92;;;;;;;;;;4996292;28;20117;-87
2023/08/16 10:49:58;;;;;;;1.92;1.40;;;;;;;;;;4962879;28;20053;-87
2023/08/16 10:52:30;;;;;;;2.20;1.70;;;;;;;;;;4989997;28;20038;-86
2023/08/16 10:54:56;;;;;;;1.75;1.42;;;;;;;;;;4988112;28;20034;-87
2023/08/16 10:57:25;;;;;;;2.25;1.80;;;;;;;;;;4973812;28;20385;-88
2023/08/16 11:00:08;;;;;;;2.80;1.63;;;;;;;;;;4993025;28;20081;-92
2023/08/16 11:02:37;;;;;;;;;;;;;;;;;;4987605;28;20048;-85
2023/08/16 11:05:03;;;;;;;3.08;1.98;;;;;;;;;;4994531;28;19910;-87
2023/08/16 11:07:29;;;;;;;2.83;1.92;;;;;;;;;;4991596;28;20022;-87
2023/08/16 11:10:00;;;;;;;2.58;1.80;;;;;;;;;;4993179;28;20129;-86
2023/08/16 11:12:30;;;;;;;2.00;1.60;;;;;;;;;;5012838;28;20038;-87
2023/08/16 11:14:57;;;;;;;3.75;2.00;;;;;;;;;;4998575;28;20073;-87
2023/08/16 11:17:26;;;;;;;2.78;2.05;;;;;;;;;;4971967;28;20022;-86
2023/08/16 11:19:53;;;;;;;4.72;2.00;;;;;;;;;;4970491;28;20041;-87
2023/08/16 11:22:20;;;;;;;2.25;1.70;;;;;;;;;;5006383;28;20030;-88
2023/08/16 11:24:47;;;;;;;2.03;1.83;;;;;;;;;;5004385;28;20034;-87
2023/08/16 11:27:12;;;;;;;5.22;2.30;;;;;;;;;;4998052;28;20130;-88
2023/08/16 11:29:38;;;;;;;3.95;2.03;;;;;;;;;;4983945;28;20051;-88
2023/08/16 11:32:04;;;;;;;2.90;2.00;;;;;;;;;;4998234;28;20104;-88
2023/08/16 11:34:32;;;;;;;2.75;1.92;;;;;;;;;;4991860;28;20037;-87
2023/08/16 11:36:58;;;;;;;2.83;2.28;;;;;;;;;;4965715;28;20054;-88
2023/08/16 11:39:25;;;;;;;4.15;2.20;;;;;;;;;;4988653;28;20490;-87
2023/08/16 11:41:51;;;;;;;2.72;2.20;;;;;;;;;;4997606;28;20053;-88
2023/08/16 11:44:17;;;;;;;2.80;2.15;;;;;;;;;;4979907;28;20509;-87
2023/08/16 11:46:45;;;;;;;3.90;2.33;;;;;;;;;;4999366;28;20588;-87
2023/08/16 11:49:14;;;;;;;2.80;2.30;;;;;;;;;;4989848;28;20026;-88
2023/08/16 11:51:41;;;;;;;3.17;2.30;;;;;;;;;;4997452;28;20061;-87
2023/08/16 11:54:08;;;;;;;3.38;2.50;;;;;;;;;;4975353;28;20034;-83
2023/08/16 11:56:34;;;;;;;3.45;2.40;;;;;;;;;;4989009;28;20478;-84
2023/08/16 11:59:00;;;;;;;5.28;2.60;;;;;;;;;;4996874;28;20061;-83
2023/08/16 12:01:26;;;;;;;3.28;2.42;;;;;;;;;;4995950;28;20035;-83
2023/08/16 12:03:51;;;;;;;3.05;2.40;;;;;;;;;;4994336;28;20473;-84
2023/08/16 12:06:17;;;;;;;3.88;2.90;;;;;;;;;;4987371;28;20042;-85
2023/08/16 12:08:51;;;;;;;5.45;2.50;;;;;;;;;;4990532;28;20030;-85
2023/08/16 12:11:30;;;;;;;3.78;2.40;;;;;;;;;;5003096;28;20033;-86
2023/08/16 12:13:56;;;;;;;3.33;1.98;;;;;;;;;;4980469;28;20034;-85
2023/08/16 12:16:21;;;;;;;3.10;2.50;;;;;;;;;;4991395;28;20105;-87
2023/08/16 12:18:50;;;;;;;3.33;2.33;;;;;;;;;;4979497;28;20101;-87
2023/08/16 12:21:16;;;;;;;4.32;2.60;;;;;;;;;;5007001;28;20031;-87
2023/08/16 12:23:41;;;;;;;3.35;2.55;;;;;;;;;;5000425;28;20121;-88
2023/08/16 12:26:07;;;;;;;5.63;2.72;;;;;;;;;;4990242;28;20385;-88
2023/08/16 12:28:32;;;;;;;4.25;2.78;;;;;;;;;;4983508;28;20032;-87
2023/08/16 12:30:58;;;;;;;4.97;3.05;;;;;;;;;;4989387;28;20031;-87
2023/08/16 12:33:23;;;;;;;7.03;3.15;;;;;;;;;;4981633;28;20758;-88
2023/08/16 12:35:49;;;;;;;5.18;2.85;;;;;;;;;;4994711;28;20033;-88
2023/08/16 12:38:15;;;;;;;6.93;3.60;;;;;;;;;;4986234;28;20173;-89
2023/08/16 12:40:41;;;;;;;5.50;2.90;;;;;;;;;;4995792;28;20147;-86
2023/08/16 12:43:07;;;;;;;5.07;3.17;;;;;;;;;;4995425;28;20097;-86
2023/08/16 12:45:33;;;;;;;4.00;3.47;;;;;;;;;;4986228;28;20077;-86
2023/08/16 12:47:59;;;;;;;4.30;3.05;;;;;;;;;;4996667;28;20428;-86
2023/08/16 12:50:25;;;;;;;4.47;3.20;;;;;;;;;;4988064;28;20038;-86
2023/08/16 12:52:50;;;;;;;5.22;3.30;;;;;;;;;;4978119;28;20121;-86
2023/08/16 12:55:16;;;;;;;6.53;5.80;;;;;;;;;;4983898;28;20089;-86
2023/08/16 12:57:41;;;;;;;6.93;4.32;;;;;;;;;;4992300;28;20038;-87
2023/08/16 13:00:10;;;;;;;4.93;4.05;;;;;;;;;;4994391;28;20034;-87
2023/08/16 13:02:35;;;;;;;6.25;3.42;;;;;;;;;;4994587;28;20502;-88
2023/08/16 13:05:01;;;;;;;5.18;3.28;;;;;;;;;;4984686;28;20030;-88
2023/08/16 13:07:27;;;;;;;7.18;3.75;;;;;;;;;;4987724;28;20417;-88
2023/08/16 13:09:52;;;;;;;6.70;4.80;;;;;;;;;;4998998;28;20030;-86
2023/08/16 13:12:18;;;;;;;7.22;3.70;;;;;;;;;;4988006;28;20041;-87
2023/08/16 13:14:44;;;;;;;5.60;3.28;;;;;;;;;;4983670;28;20034;-88
2023/08/16 13:17:10;;;;;;;5.57;3.67;;;;;;;;;;4983245;28;20047;-87
2023/08/16 13:19:35;;;;;;;5.15;3.30;;;;;;;;;;4997387;28;20042;-89
2023/08/16 13:22:01;;;;;;;3.95;2.83;;;;;;;;;;4992450;28;20048;-87
2023/08/16 13:24:26;;;;;;;5.40;3.15;;;;;;;;;;4997777;28;20469;-88
2023/08/16 13:26:52;;;;;;;4.82;3.45;;;;;;;;;;4986713;28;20022;-88
2023/08/16 13:29:19;;;;;;;4.72;3.05;;;;;;;;;;4986216;28;20034;-87
2023/08/16 13:31:44;;;;;;;4.97;2.75;;;;;;;;;;5005953;28;20087;-87
2023/08/16 13:34:10;;;;;;;5.95;3.17;;;;;;;;;;4999566;28;20046;-85
2023/08/16 13:36:35;;;;;;;4.35;3.20;;;;;;;;;;4990359;28;20497;-88
2023/08/16 13:39:01;;;;;;;4.15;2.97;;;;;;;;;;4967096;28;20066;-86
2023/08/16 13:41:27;;;;;;;4.57;3.10;;;;;;;;;;4979745;28;20049;-89
2023/08/16 13:43:52;;;;;;;4.28;3.03;;;;;;;;;;4999589;28;20121;-88
2023/08/16 13:46:18;;;;;;;6.35;3.20;;;;;;;;;;4994767;28;20029;-85
2023/08/16 13:48:43;;;;;;;6.60;3.30;;;;;;;;;;4995175;28;20034;-88
2023/08/16 13:51:09;;;;;;;5.40;3.03;;;;;;;;;;4978963;28;20427;-88
2023/08/16 13:53:35;;;;;;;4.38;3.50;;;;;;;;;;4979888;28;20039;-85
2023/08/16 13:56:01;;;;;;;4.78;3.10;;;;;;;;;;4996462;28;20100;-88
2023/08/16 13:58:28;;;;;;;6.22;3.38;;;;;;;;;;4995898;28;20037;-86
2023/08/16 14:00:54;;;;;;;7.18;2.90;;;;;;;;;;4987091;28;20050;-86
2023/08/16 14:03:19;;;;;;;7.72;2.92;;;;;;;;;;4987992;28;20191;-85
2023/08/16 14:05:45;;;;;;;3.85;2.83;;;;;;;;;;4994131;28;20026;-85
2023/08/16 14:08:11;;;;;;;3.80;2.65;;;;;;;;;;4994474;28;20029;-87
2023/08/16 14:10:38;;;;;;;4.30;3.05;;;;;;;;;;5002983;28;20449;-87
2023/08/16 14:13:04;;;;;;;4.65;3.10;;;;;;;;;;4984451;28;20030;-85
2023/08/16 14:15:29;;;;;;;6.80;3.10;;;;;;;;;;4998446;28;20030;-86
2023/08/16 14:17:55;;;;;;;4.63;2.90;;;;;;;;;;4990053;28;20026;-85
2023/08/16 14:20:20;;;;;;;6.00;3.10;;;;;;;;;;5007543;28;20033;-85
2023/08/16 14:22:46;;;;;;;7.22;3.00;;;;;;;;;;5000300;28;20133;-88
2023/08/16 14:25:11;;;;;;;4.28;2.95;;;;;;;;;;4971998;28;20084;-89
2023/08/16 14:27:37;;;;;;;4.32;2.90;;;;;;;;;;4982377;28;20552;-87
2023/08/16 14:30:04;;;;;;;5.35;3.08;;;;;;;;;;5010377;28;20051;-87
2023/08/16 14:32:29;;;;;;;7.50;3.05;;;;;;;;;;5003756;28;20501;-88
2023/08/16 14:34:56;;;;;;;3.97;3.00;;;;;;;;;;4994209;28;20114;-85
2023/08/16 14:37:22;;;;;;;5.30;2.85;;;;;;;;;;4970309;28;20037;-86
2023/08/16 14:39:48;;;;;;;4.90;2.95;;;;;;;;;;5003925;28;20038;-88